Time;durP1;ratioP1;P1;durP2;ratioP2;P2;SDS_P1;SDS_P2;PMS_P1;PMS_P2;Temp;Humidity;BMP_temperature;BMP_pressure;BME280_temperature;BME280_humidity;BME280_pressure;Samples;Min_cycle;Max_cycle;Signal;HPM_P1;HPM_P2
2022/01/05 00:01:18;;;;;;;5.77;2.50;;;4.40;99.90;;;;;;4993857;28;20335;-68
2022/01/05 00:03:49;;;;;;;5.13;2.77;;;4.40;99.90;;;;;;4994223;28;20510;-68
2022/01/05 00:06:15;;;;;;;4.87;2.60;;;4.40;99.90;;;;;;4993690;28;20486;-69
2022/01/05 00:08:42;;;;;;;7.70;3.10;;;4.40;99.90;;;;;;4994118;28;20298;-69
2022/01/05 00:11:10;;;;;;;7.13;2.93;;;4.50;99.90;;;;;;4993781;28;20133;-69
2022/01/05 00:13:37;;;;;;;6.13;3.30;;;4.40;99.90;;;;;;4993765;28;20510;-69
2022/01/05 00:16:05;;;;;;;7.03;3.10;;;4.40;99.90;;;;;;4993871;28;20054;-69
2022/01/05 00:18:32;;;;;;;6.47;3.10;;;4.30;99.90;;;;;;4993672;28;20056;-69
2022/01/05 00:21:01;;;;;;;7.80;3.73;;;4.30;99.90;;;;;;4993841;28;20055;-69
2022/01/05 00:23:28;;;;;;;7.97;3.23;;;4.30;99.90;;;;;;4986056;28;20064;-69
2022/01/05 00:25:55;;;;;;;6.67;3.30;;;4.30;99.90;;;;;;4993174;28;20068;-69
2022/01/05 00:28:22;;;;;;;7.47;3.60;;;4.20;99.90;;;;;;4993587;28;20410;-69
2022/01/05 00:30:49;;;;;;;7.27;4.23;;;4.20;99.90;;;;;;4993490;28;20145;-69
2022/01/05 00:33:18;;;;;;;9.10;4.37;;;4.20;99.90;;;;;;4993345;28;20076;-69
2022/01/05 00:35:48;;;;;;;8.40;4.13;;;4.20;99.90;;;;;;5003518;28;20097;-69
2022/01/05 00:38:17;;;;;;;8.13;4.10;;;4.10;99.90;;;;;;5013029;28;20082;-69
2022/01/05 00:40:43;;;;;;;7.90;4.10;;;4.10;99.90;;;;;;4993843;28;20129;-69
2022/01/05 00:43:10;;;;;;;8.13;3.90;;;4.10;99.90;;;;;;4993466;28;20593;-69
2022/01/05 00:45:46;;;;;;;9.40;4.37;;;4.10;99.90;;;;;;4993050;28;20157;-69
2022/01/05 00:48:13;;;;;;;10.38;4.38;;;4.10;99.90;;;;;;4993455;28;20542;-69
2022/01/05 00:50:40;;;;;;;8.37;4.17;;;4.00;99.90;;;;;;4993279;28;20590;-69
2022/01/05 00:53:10;;;;;;;8.03;4.13;;;4.00;99.90;;;;;;4992991;28;20137;-69
2022/01/05 00:55:38;;;;;;;8.30;4.10;;;4.00;99.90;;;;;;4992872;28;20133;-69
2022/01/05 00:58:05;;;;;;;7.67;4.10;;;4.00;99.90;;;;;;4992981;28;20454;-69
2022/01/05 01:00:32;;;;;;;8.67;3.93;;;4.00;99.90;;;;;;4992928;28;20050;-69
2022/01/05 01:03:01;;;;;;;8.03;3.70;;;4.00;99.90;;;;;;4992898;28;20414;-69
2022/01/05 01:05:28;;;;;;;7.10;3.80;;;4.00;99.90;;;;;;4985140;28;20137;-69
2022/01/05 01:07:57;;;;;;;7.40;3.80;;;4.00;99.90;;;;;;4992624;28;20057;-69
2022/01/05 01:10:24;;;;;;;6.80;3.23;;;4.00;99.90;;;;;;4992907;28;20046;-69
2022/01/05 01:12:55;;;;;;;6.67;3.40;;;4.00;99.90;;;;;;4992488;28;20093;-69
2022/01/05 01:15:22;;;;;;;10.57;5.33;;;4.00;99.90;;;;;;4992597;28;20056;-69
2022/01/05 01:17:52;;;;;;;9.40;5.07;;;4.00;99.90;;;;;;4992595;28;20141;-69
2022/01/05 01:20:20;;;;;;;9.43;4.23;;;4.00;99.90;;;;;;4992494;28;20133;-69
2022/01/05 01:22:48;;;;;;;9.20;4.87;;;4.10;99.90;;;;;;4992435;28;20082;-69
2022/01/05 01:25:16;;;;;;;9.30;4.80;;;4.00;99.90;;;;;;4992162;28;20133;-69
2022/01/05 01:27:46;;;;;;;10.23;4.83;;;4.10;99.90;;;;;;4992558;28;20787;-69
2022/01/05 01:30:15;;;;;;;9.97;5.30;;;4.10;99.90;;;;;;4992808;28;20533;-69
2022/01/05 01:32:42;;;;;;;10.37;5.50;;;4.10;99.90;;;;;;4992437;28;20482;-69
2022/01/05 01:35:09;;;;;;;11.23;5.63;;;4.10;99.90;;;;;;4991905;28;20516;-69
2022/01/05 01:37:36;;;;;;;9.57;5.00;;;4.10;99.90;;;;;;4992185;28;20569;-69
2022/01/05 01:40:04;;;;;;;10.37;5.80;;;4.10;99.90;;;;;;4992291;28;20137;-69
2022/01/05 01:42:31;;;;;;;11.40;6.13;;;4.10;99.90;;;;;;4992382;28;20133;-69
2022/01/05 01:44:58;;;;;;;11.70;5.90;;;4.00;99.90;;;;;;4992500;28;20052;-69
2022/01/05 01:47:26;;;;;;;11.83;6.50;;;4.10;99.90;;;;;;4992125;28;20413;-69
2022/01/05 01:49:55;;;;;;;11.60;6.07;;;4.10;99.90;;;;;;4992366;28;20056;-69
2022/01/05 01:52:21;;;;;;;11.87;6.37;;;4.10;99.90;;;;;;4991894;28;20129;-69
2022/01/05 01:54:48;;;;;;;13.00;6.87;;;4.10;99.90;;;;;;4992040;28;20137;-69
2022/01/05 01:57:16;;;;;;;13.77;6.30;;;4.10;99.90;;;;;;4992207;28;20480;-70
2022/01/05 01:59:44;;;;;;;13.40;6.70;;;4.10;99.90;;;;;;4992162;28;20133;-69
2022/01/05 02:02:11;;;;;;;12.47;6.47;;;4.10;99.90;;;;;;4992130;28;20062;-69
2022/01/05 02:04:41;;;;;;;12.00;5.77;;;4.10;99.90;;;;;;4992129;28;20491;-69
2022/01/05 02:07:08;;;;;;;14.77;6.13;;;4.10;99.90;;;;;;4991920;28;20054;-70
2022/01/05 02:09:35;;;;;;;11.90;5.93;;;4.10;99.90;;;;;;4992126;28;20585;-70
2022/01/05 02:12:02;;;;;;;12.97;5.97;;;4.10;99.90;;;;;;4991990;28;20130;-70
2022/01/05 02:14:29;;;;;;;9.77;4.67;;;4.10;99.90;;;;;;4992120;28;20473;-70
2022/01/05 02:16:57;;;;;;;14.40;6.00;;;4.10;99.90;;;;;;4991796;28;20072;-70
2022/01/05 02:19:24;;;;;;;13.13;5.83;;;4.10;99.90;;;;;;4992099;28;20154;-70
2022/01/05 02:21:53;;;;;;;10.97;5.67;;;4.10;99.90;;;;;;4991672;28;20137;-70
2022/01/05 02:24:19;;;;;;;14.00;5.93;;;4.20;99.90;;;;;;4991935;28;20142;-70
2022/01/05 02:26:46;;;;;;;12.67;5.97;;;4.20;99.90;;;;;;4991894;28;20138;-69
2022/01/05 02:29:14;;;;;;;11.53;5.83;;;4.20;99.90;;;;;;4991963;28;20046;-69
2022/01/05 02:31:40;;;;;;;18.33;6.13;;;4.20;99.90;;;;;;4991835;28;20503;-69
2022/01/05 02:34:07;;;;;;;12.07;5.57;;;4.20;99.90;;;;;;4991702;28;20129;-69
2022/01/05 02:36:34;;;;;;;10.43;5.43;;;4.20;99.90;;;;;;4991609;28;20048;-69
2022/01/05 02:39:03;;;;;;;11.80;5.87;;;4.20;99.90;;;;;;4991743;28;20133;-69
2022/01/05 02:41:30;;;;;;;11.77;5.50;;;4.30;99.90;;;;;;4991717;28;20076;-69
2022/01/05 02:43:57;;;;;;;10.77;5.63;;;4.30;99.90;;;;;;4991862;28;20158;-69
2022/01/05 02:46:24;;;;;;;12.77;5.17;;;4.30;99.90;;;;;;4991637;28;20104;-69
2022/01/05 02:48:53;;;;;;;12.40;5.57;;;4.30;99.90;;;;;;4994359;28;20146;-69
2022/01/05 02:51:20;;;;;;;10.20;5.27;;;4.30;99.90;;;;;;4995234;28;20089;-69
2022/01/05 02:53:47;;;;;;;10.87;5.17;;;4.30;99.90;;;;;;4995460;28;20093;-69
2022/01/05 02:56:16;;;;;;;10.83;5.30;;;4.30;99.90;;;;;;4997874;28;20056;-69
2022/01/05 02:58:42;;;;;;;9.17;4.53;;;4.40;99.90;;;;;;5018377;28;20050;-70
2022/01/05 03:01:09;;;;;;;9.47;5.27;;;4.40;99.90;;;;;;5007519;28;20073;-69
2022/01/05 03:03:36;;;;;;;10.60;4.83;;;4.40;99.90;;;;;;4995425;28;20238;-69
2022/01/05 03:06:04;;;;;;;10.20;5.07;;;4.40;99.90;;;;;;4995085;28;20141;-69
2022/01/05 03:08:31;;;;;;;10.03;4.67;;;4.40;99.90;;;;;;4994905;28;20486;-69
2022/01/05 03:10:59;;;;;;;10.07;4.73;;;4.40;99.90;;;;;;4994914;28;20522;-69
2022/01/05 03:13:27;;;;;;;12.97;5.23;;;4.40;99.90;;;;;;4995137;28;20058;-69
2022/01/05 03:15:56;;;;;;;10.00;5.00;;;4.40;99.90;;;;;;4994787;28;20239;-69
2022/01/05 03:18:23;;;;;;;12.00;5.47;;;4.40;99.90;;;;;;4995075;28;20054;-69
2022/01/05 03:20:50;;;;;;;9.97;4.97;;;4.40;99.90;;;;;;4994981;28;20137;-69
2022/01/05 03:23:17;;;;;;;15.17;5.53;;;4.40;99.90;;;;;;4994603;28;20146;-69
2022/01/05 03:25:44;;;;;;;9.20;4.70;;;4.40;99.90;;;;;;4994599;28;20136;-69
2022/01/05 03:28:12;;;;;;;9.60;5.10;;;4.50;99.90;;;;;;4994523;28;20060;-70
2022/01/05 03:30:41;;;;;;;9.47;4.50;;;4.50;99.90;;;;;;4994611;28;20133;-70
2022/01/05 03:33:12;;;;;;;11.03;5.13;;;4.50;99.90;;;;;;4994712;28;20062;-70
2022/01/05 03:35:45;;;;;;;11.83;5.73;;;4.50;99.90;;;;;;5089178;23;20049;-68
2022/01/05 03:38:12;;;;;;;10.80;4.67;;;4.50;99.90;;;;;;4955170;29;20057;-68
2022/01/05 03:40:40;;;;;;;11.07;4.83;;;4.50;99.90;;;;;;4956150;29;20090;-68
2022/01/05 03:43:08;;;;;;;9.97;4.37;;;4.50;99.90;;;;;;4955699;29;20142;-69
2022/01/05 03:45:36;;;;;;;9.87;5.00;;;4.50;99.90;;;;;;4955822;29;20129;-67
2022/01/05 03:48:07;;;;;;;9.20;4.70;;;4.50;99.90;;;;;;4955713;29;20047;-69
2022/01/05 03:50:34;;;;;;;9.07;4.60;;;4.60;99.90;;;;;;4955604;29;20139;-68
2022/01/05 03:53:02;;;;;;;9.53;4.70;;;4.60;99.90;;;;;;4955483;29;20111;-67
2022/01/05 03:55:28;;;;;;;10.23;5.27;;;4.60;99.90;;;;;;4955576;29;20566;-67
2022/01/05 03:57:55;;;;;;;9.60;4.97;;;4.60;99.90;;;;;;4955032;28;20509;-67
2022/01/05 04:00:24;;;;;;;15.00;5.30;;;4.60;99.90;;;;;;4954197;29;20086;-68
2022/01/05 04:02:51;;;;;;;10.80;5.67;;;4.60;99.90;;;;;;4950766;28;20146;-68
2022/01/05 04:05:19;;;;;;;10.37;4.63;;;4.60;99.90;;;;;;4948462;28;20051;-67
2022/01/05 04:07:46;;;;;;;10.32;5.35;;;4.70;99.90;;;;;;4964134;28;20137;-67
2022/01/05 04:10:13;;;;;;;11.70;4.87;;;4.70;99.90;;;;;;4974566;28;20509;-67
2022/01/05 04:12:40;;;;;;;10.07;4.50;;;4.70;99.90;;;;;;4974756;28;20129;-67
2022/01/05 04:15:08;;;;;;;9.10;5.03;;;4.70;99.90;;;;;;4964306;28;20149;-67
2022/01/05 04:17:35;;;;;;;9.30;4.53;;;4.80;99.90;;;;;;4939406;29;20083;-68
2022/01/05 04:20:03;;;;;;;9.68;4.50;;;4.80;99.90;;;;;;4935969;29;20073;-68
2022/01/05 04:22:31;;;;;;;9.60;5.07;;;4.80;99.90;;;;;;4935804;29;20052;-68
2022/01/05 04:24:58;;;;;;;9.40;4.50;;;4.80;99.90;;;;;;4935784;29;20126;-67
2022/01/05 04:27:25;;;;;;;10.60;4.50;;;4.80;99.90;;;;;;4935786;29;20087;-67
2022/01/05 04:29:52;;;;;;;9.77;5.05;;;4.90;99.90;;;;;;4936055;29;20143;-67
2022/01/05 04:32:19;;;;;;;11.00;4.53;;;4.80;99.90;;;;;;4935879;29;20193;-67
2022/01/05 04:34:46;;;;;;;8.73;4.53;;;4.90;99.90;;;;;;4935429;29;20086;-67
2022/01/05 04:37:13;;;;;;;7.55;3.53;;;4.90;99.90;;;;;;4935884;29;20130;-68
2022/01/05 04:39:42;;;;;;;8.10;4.03;;;5.00;99.90;;;;;;4935528;29;20134;-67
2022/01/05 04:42:09;;;;;;;8.70;4.10;;;5.00;99.90;;;;;;4935818;29;20090;-67
2022/01/05 04:44:36;;;;;;;7.50;3.50;;;5.00;99.90;;;;;;4935297;29;20131;-68
2022/01/05 04:47:03;;;;;;;8.50;3.40;;;5.00;99.90;;;;;;4935372;29;20112;-67
2022/01/05 04:49:30;;;;;;;7.00;3.53;;;5.00;99.90;;;;;;4935297;29;20134;-68
2022/01/05 04:51:57;;;;;;;7.32;3.55;;;5.00;99.90;;;;;;4935312;29;20266;-67
2022/01/05 04:54:24;;;;;;;9.52;3.88;;;5.00;99.90;;;;;;4935304;29;20056;-68
2022/01/05 04:56:52;;;;;;;6.22;3.08;;;5.00;99.90;;;;;;4935325;29;20420;-67
2022/01/05 04:59:19;;;;;;;6.80;3.28;;;5.10;99.90;;;;;;4935046;29;20130;-66
2022/01/05 05:01:46;;;;;;;6.15;3.10;;;5.00;99.90;;;;;;4935343;29;20087;-66
2022/01/05 05:04:13;;;;;;;6.93;2.85;;;5.10;99.90;;;;;;4935317;29;20508;-68
2022/01/05 05:06:40;;;;;;;5.40;2.53;;;5.10;99.90;;;;;;4935113;29;20419;-67
2022/01/05 05:09:07;;;;;;;6.60;3.10;;;5.10;99.90;;;;;;4935393;29;20139;-66
2022/01/05 05:11:34;;;;;;;6.17;2.90;;;5.10;99.90;;;;;;4934351;29;20062;-67
2022/01/05 05:14:02;;;;;;;5.75;2.38;;;5.10;99.90;;;;;;4935541;29;20091;-66
2022/01/05 05:16:29;;;;;;;4.93;2.30;;;5.20;99.90;;;;;;4934905;29;20488;-66
2022/01/05 05:18:56;;;;;;;6.68;2.08;;;5.10;99.90;;;;;;4936046;29;20143;-69
2022/01/05 05:21:23;;;;;;;5.43;1.88;;;5.20;99.90;;;;;;4935169;29;20150;-67
2022/01/05 05:23:50;;;;;;;5.25;1.80;;;5.20;99.90;;;;;;4935180;29;20052;-67
2022/01/05 05:26:17;;;;;;;3.28;1.67;;;5.20;99.90;;;;;;4934893;29;20055;-67
2022/01/05 05:28:44;;;;;;;4.28;1.52;;;5.20;99.90;;;;;;4935290;29;20567;-66
2022/01/05 05:31:12;;;;;;;4.78;1.38;;;5.20;99.90;;;;;;4934857;29;20143;-67
2022/01/05 05:33:39;;;;;;;3.45;1.50;;;5.20;99.90;;;;;;4939961;29;20385;-68
2022/01/05 05:36:06;;;;;;;2.50;1.13;;;5.20;99.90;;;;;;4945389;29;20078;-67
2022/01/05 05:38:34;;;;;;;2.85;1.30;;;5.20;99.90;;;;;;4947545;29;20083;-67
2022/01/05 05:41:01;;;;;;;1.08;0.80;;;5.20;99.90;;;;;;4947039;29;20085;-68
2022/01/05 05:43:28;;;;;;;2.30;1.13;;;5.30;99.90;;;;;;4947200;29;20090;-67
2022/01/05 05:45:55;;;;;;;1.13;0.70;;;5.20;99.90;;;;;;4946590;29;20052;-68
2022/01/05 05:48:23;;;;;;;2.72;1.08;;;5.20;99.90;;;;;;4946544;29;20079;-67
2022/01/05 05:50:50;;;;;;;1.90;0.82;;;5.10;99.90;;;;;;4946940;29;20058;-67
2022/01/05 05:53:17;;;;;;;2.30;0.95;;;5.20;99.90;;;;;;4948234;29;20066;-69
2022/01/05 05:55:44;;;;;;;1.50;0.80;;;5.20;99.90;;;;;;4949741;29;20508;-67
2022/01/05 05:58:11;;;;;;;4.43;1.23;;;5.10;99.90;;;;;;4949277;29;20051;-68
2022/01/05 06:00:37;;;;;;;2.58;0.90;;;5.10;99.90;;;;;;4948465;29;20054;-67
2022/01/05 06:03:04;;;;;;;1.90;0.50;;;4.60;99.90;;;;;;4943050;29;20135;-69
2022/01/05 06:05:33;;;;;;;1.77;0.30;;;3.30;99.90;;;;;;4945309;29;20087;-67
2022/01/05 06:08:00;;;;;;;0.67;0.30;;;2.90;99.90;;;;;;4948215;29;20090;-68
2022/01/05 06:10:27;;;;;;;0.97;0.33;;;2.90;99.90;;;;;;4947353;29;20063;-69
2022/01/05 06:12:54;;;;;;;1.70;0.47;;;2.80;99.90;;;;;;4947978;29;20055;-68
2022/01/05 06:15:21;;;;;;;2.47;0.23;;;2.90;99.90;;;;;;4947263;29;20091;-68
2022/01/05 06:17:48;;;;;;;0.67;0.40;;;2.80;99.90;;;;;;4949601;29;20127;-68
2022/01/05 06:20:15;;;;;;;0.40;0.30;;;2.70;99.90;;;;;;4950454;29;20059;-69
2022/01/05 06:22:43;;;;;;;2.37;0.70;;;2.70;99.90;;;;;;4947536;29;20460;-68
2022/01/05 06:25:12;;;;;;;5.00;1.13;;;2.70;99.90;;;;;;4949426;29;20143;-68
2022/01/05 06:27:39;;;;;;;0.83;0.30;;;2.60;99.90;;;;;;4952268;29;20115;-68
2022/01/05 06:30:08;;;;;;;0.50;0.40;;;2.60;99.90;;;;;;4952086;29;20055;-69
2022/01/05 06:32:35;;;;;;;0.90;0.37;;;2.60;99.90;;;;;;4941978;29;20083;-68
2022/01/05 06:35:03;;;;;;;2.63;0.50;;;2.60;99.90;;;;;;4940084;29;20087;-70
2022/01/05 06:37:31;;;;;;;3.70;0.50;;;2.60;99.90;;;;;;4940318;29;20119;-69
2022/01/05 06:39:59;;;;;;;0.20;0.20;;;2.60;99.90;;;;;;4940278;29;20134;-68
2022/01/05 06:42:26;;;;;;;0.47;0.27;;;2.60;99.90;;;;;;4932281;29;20072;-67
2022/01/05 06:44:53;;;;;;;1.40;0.50;;;2.60;99.90;;;;;;4939881;29;20087;-70
2022/01/05 06:47:20;;;;;;;0.37;0.30;;;2.60;99.90;;;;;;4942063;29;20135;-69
2022/01/05 06:49:47;;;;;;;0.93;0.50;;;2.50;99.90;;;;;;4941421;29;20091;-68
2022/01/05 06:52:13;;;;;;;1.50;0.40;;;2.50;99.90;;;;;;4941628;29;20536;-68
2022/01/05 06:54:41;;;;;;;0.70;0.33;;;2.60;99.90;;;;;;4941035;29;20568;-69
2022/01/05 06:57:10;;;;;;;2.50;0.50;;;2.50;99.90;;;;;;4939039;29;20147;-68
2022/01/05 06:59:37;;;;;;;2.77;0.50;;;2.60;99.90;;;;;;4938596;29;20509;-68
2022/01/05 07:02:05;;;;;;;0.87;0.40;;;2.60;99.90;;;;;;4938351;29;20531;-68
2022/01/05 07:04:32;;;;;;;1.00;0.53;;;2.50;99.90;;;;;;4938212;29;20051;-68
2022/01/05 07:06:59;;;;;;;1.57;0.57;;;2.50;99.90;;;;;;4938529;29;20143;-68
2022/01/05 07:09:26;;;;;;;1.30;0.43;;;2.60;99.90;;;;;;4938460;29;20052;-68
2022/01/05 07:11:52;;;;;;;1.03;0.60;;;2.50;99.90;;;;;;4938488;29;20665;-68
2022/01/05 07:14:21;;;;;;;1.57;0.70;;;2.60;99.90;;;;;;4938101;29;20142;-68
2022/01/05 07:16:48;;;;;;;2.47;0.63;;;2.60;99.90;;;;;;4938033;29;20087;-68
2022/01/05 07:19:15;;;;;;;2.57;0.67;;;2.60;99.90;;;;;;4938119;29;20555;-67
2022/01/05 07:21:43;;;;;;;1.90;0.90;;;2.50;99.90;;;;;;4938171;29;20188;-68
2022/01/05 07:24:12;;;;;;;1.33;0.80;;;2.60;99.90;;;;;;4937797;29;20091;-69
2022/01/05 07:26:39;;;;;;;2.60;1.00;;;2.60;99.90;;;;;;4937981;29;20055;-68
2022/01/05 07:29:06;;;;;;;1.10;0.70;;;2.60;99.90;;;;;;4938025;29;20052;-68
2022/01/05 07:31:34;;;;;;;1.30;0.63;;;2.60;99.90;;;;;;4937886;29;20095;-68
2022/01/05 07:34:01;;;;;;;2.67;0.73;;;2.60;99.90;;;;;;4936754;29;20139;-68
2022/01/05 07:36:28;;;;;;;1.27;0.60;;;2.60;99.90;;;;;;4937084;29;20139;-68
2022/01/05 07:38:55;;;;;;;4.70;0.90;;;2.60;99.90;;;;;;4937138;29;20138;-68
2022/01/05 07:41:22;;;;;;;2.27;0.77;;;2.60;99.90;;;;;;4942534;29;20087;-68
2022/01/05 07:43:51;;;;;;;4.47;1.13;;;2.60;99.90;;;;;;4941209;29;20051;-68
2022/01/05 07:46:18;;;;;;;3.07;0.80;;;2.60;99.90;;;;;;4941888;29;20143;-68
2022/01/05 07:48:46;;;;;;;3.43;1.10;;;2.60;99.90;;;;;;4937111;29;20102;-68
2022/01/05 07:51:13;;;;;;;3.40;0.80;;;2.60;99.90;;;;;;4936636;29;20052;-68
2022/01/05 07:53:41;;;;;;;3.43;1.20;;;2.60;99.90;;;;;;4936660;29;20060;-69
2022/01/05 07:56:09;;;;;;;4.57;0.83;;;2.50;99.90;;;;;;4936712;29;20074;-69
2022/01/05 07:58:36;;;;;;;4.93;0.90;;;2.60;99.90;;;;;;4936903;29;20505;-67
2022/01/05 08:01:04;;;;;;;2.63;0.97;;;2.50;99.90;;;;;;4937161;29;20138;-68
2022/01/05 08:03:33;;;;;;;4.10;1.23;;;2.50;99.90;;;;;;4937668;29;20060;-68
2022/01/05 08:06:01;;;;;;;5.40;1.27;;;2.40;99.90;;;;;;4936719;29;20055;-68
2022/01/05 08:08:29;;;;;;;4.27;1.80;;;2.40;99.90;;;;;;4936382;29;20048;-67
2022/01/05 08:10:56;;;;;;;6.70;1.50;;;2.30;99.90;;;;;;4936297;29;20056;-68
2022/01/05 08:13:24;;;;;;;6.73;1.83;;;2.30;99.90;;;;;;4936453;29;20144;-68
2022/01/05 08:15:51;;;;;;;2.50;1.30;;;2.30;99.90;;;;;;4936143;29;20142;-68
2022/01/05 08:18:19;;;;;;;4.93;1.50;;;2.40;99.90;;;;;;4936508;29;20097;-69
2022/01/05 08:20:46;;;;;;;6.10;2.23;;;2.30;99.90;;;;;;4936164;29;20051;-68
2022/01/05 08:23:17;;;;;;;4.63;1.70;;;2.30;99.90;;;;;;4936118;29;20147;-67
2022/01/05 08:25:45;;;;;;;3.63;1.73;;;2.30;99.90;;;;;;4936222;29;20055;-68
2022/01/05 08:28:12;;;;;;;6.60;2.23;;;2.40;99.90;;;;;;4936402;29;20115;-66
2022/01/05 08:30:39;;;;;;;10.17;3.03;;;2.30;99.90;;;;;;4936174;29;20493;-66
2022/01/05 08:33:07;;;;;;;7.37;2.33;;;2.20;99.90;;;;;;4936441;29;20090;-66
2022/01/05 08:35:35;;;;;;;8.27;2.80;;;2.20;99.90;;;;;;4936148;29;20464;-67
2022/01/05 08:38:02;;;;;;;8.17;2.13;;;2.20;99.90;;;;;;4936564;29;20115;-67
2022/01/05 08:40:31;;;;;;;9.10;2.57;;;2.20;99.90;;;;;;4936395;29;20055;-68
2022/01/05 08:42:59;;;;;;;5.33;2.20;;;2.20;99.90;;;;;;4936613;29;20122;-67
2022/01/05 08:45:26;;;;;;;17.70;2.90;;;2.20;99.90;;;;;;4936370;29;20107;-70
2022/01/05 08:47:55;;;;;;;7.30;2.17;;;2.20;99.90;;;;;;4936830;29;20482;-67
2022/01/05 08:50:23;;;;;;;7.93;2.50;;;2.20;99.90;;;;;;4936078;29;20143;-68
2022/01/05 08:52:52;;;;;;;8.67;3.00;;;2.20;99.90;;;;;;4936071;29;20048;-69
2022/01/05 08:55:20;;;;;;;5.60;2.60;;;2.20;99.90;;;;;;4935324;29;20398;-68
2022/01/05 08:57:50;;;;;;;9.90;2.67;;;2.10;99.90;;;;;;4935952;29;20083;-68
2022/01/05 09:00:18;;;;;;;11.13;2.60;;;2.10;99.90;;;;;;4938187;29;20146;-68
2022/01/05 09:02:45;;;;;;;6.83;2.87;;;2.10;99.90;;;;;;4936788;29;20115;-68
2022/01/05 09:05:14;;;;;;;10.87;3.30;;;2.10;99.90;;;;;;4936047;29;20540;-67
2022/01/05 09:07:41;;;;;;;8.90;2.93;;;2.00;99.90;;;;;;4935920;29;20115;-67
2022/01/05 09:10:09;;;;;;;7.40;3.47;;;2.00;99.90;;;;;;4935993;29;20138;-68
2022/01/05 09:12:36;;;;;;;9.60;2.87;;;2.00;99.90;;;;;;4935810;29;20084;-70
2022/01/05 09:15:05;;;;;;;8.97;2.83;;;2.00;99.90;;;;;;4935134;29;20134;-68
2022/01/05 09:17:32;;;;;;;14.53;3.33;;;2.00;99.90;;;;;;4935377;29;20461;-68
2022/01/05 09:19:59;;;;;;;7.97;2.40;;;2.10;99.90;;;;;;4935090;29;20138;-68
2022/01/05 09:22:26;;;;;;;7.87;2.80;;;2.30;99.90;;;;;;4935592;29;20130;-69
2022/01/05 09:24:54;;;;;;;8.37;2.80;;;2.10;99.90;;;;;;4934986;29;20112;-67
2022/01/05 09:27:21;;;;;;;13.00;3.93;;;2.10;99.90;;;;;;4936384;29;20529;-68
2022/01/05 09:29:49;;;;;;;8.07;2.50;;;2.10;99.90;;;;;;4934772;29;20047;-67
2022/01/05 09:32:17;;;;;;;8.63;2.80;;;2.20;99.90;;;;;;4934845;29;20083;-67
2022/01/05 09:34:44;;;;;;;14.17;2.73;;;2.90;99.90;;;;;;4934406;29;20091;-69
2022/01/05 09:37:17;;;;;;;7.80;2.47;;;4.90;99.90;;;;;;4959701;23;20118;-69
2022/01/05 09:42:30;;;;;;;8.03;2.20;;;3.50;99.90;;;;;;4953877;28;20128;-69
2022/01/05 09:44:59;;;;;;;6.07;1.80;;;3.80;99.90;;;;;;4953448;29;20059;-69
2022/01/05 09:47:46;;;;;;;7.85;1.70;;;5.70;99.90;;;;;;4954215;29;20113;-69
2022/01/05 09:50:15;;;;;;;9.25;1.85;;;4.60;99.90;;;;;;4953468;29;20438;-69
2022/01/05 09:52:44;;;;;;;5.00;1.63;;;4.60;99.90;;;;;;4953550;28;20590;-68
2022/01/05 09:55:12;;;;;;;6.20;1.70;;;3.70;99.90;;;;;;4953503;29;20143;-68
2022/01/05 09:57:41;;;;;;;7.85;1.65;;;3.60;99.90;;;;;;4953144;28;20582;-68
2022/01/05 10:00:10;;;;;;;6.68;1.80;;;6.00;99.90;;;;;;4953556;29;20133;-68
2022/01/05 10:02:38;;;;;;;4.60;1.13;;;5.70;99.90;;;;;;4953949;28;20091;-68
2022/01/05 10:05:08;;;;;;;11.90;2.20;;;3.50;99.90;;;;;;4953464;29;20141;-68
2022/01/05 10:07:35;;;;;;;7.20;2.63;;;3.00;99.90;;;;;;4953642;29;20491;-68
2022/01/05 10:10:06;;;;;;;10.27;2.08;;;3.80;99.90;;;;;;4953596;29;20051;-68
2022/01/05 10:12:33;;;;;;;11.38;3.00;;;4.10;99.90;;;;;;4953600;28;20095;-68
2022/01/05 10:15:00;;;;;;;7.57;2.10;;;3.20;99.90;;;;;;4953402;29;20484;-68
2022/01/05 10:17:29;;;;;;;10.65;1.88;;;2.90;99.90;;;;;;4945521;29;20047;-68
2022/01/05 10:19:59;;;;;;;14.73;1.73;;;3.10;99.90;;;;;;4953265;29;20500;-68
2022/01/05 10:22:34;;;;;;;6.57;1.60;;;2.80;99.90;;;;;;4953263;28;20463;-68
2022/01/05 10:25:04;;;;;;;6.67;1.40;;;2.50;99.90;;;;;;4953296;29;20106;-68
2022/01/05 10:27:31;;;;;;;6.13;1.67;;;2.30;99.90;;;;;;4953346;29;20090;-68
2022/01/05 10:30:00;;;;;;;7.33;2.60;;;2.50;99.90;;;;;;4953159;29;20522;-68
2022/01/05 10:32:30;;;;;;;8.93;2.30;;;2.30;99.90;;;;;;4953142;28;20052;-68
2022/01/05 10:35:06;;;;;;;8.37;1.47;;;2.70;99.90;;;;;;4953182;29;20061;-68
2022/01/05 10:37:34;;;;;;;8.20;1.60;;;2.50;99.90;;;;;;4952947;29;20142;-68
2022/01/05 10:40:15;;;;;;;6.63;1.87;;;2.50;99.90;;;;;;4953476;29;20093;-68
2022/01/05 10:42:43;;;;;;;8.03;1.80;;;3.00;99.90;;;;;;4953424;28;20059;-68
2022/01/05 10:45:12;;;;;;;6.70;2.13;;;4.30;99.90;;;;;;4953177;29;20059;-69
2022/01/05 10:47:41;;;;;;;7.03;1.67;;;5.60;99.90;;;;;;4953292;29;20052;-69
2022/01/05 10:50:19;;;;;;;5.32;1.40;;;6.00;99.90;;;;;;4953303;29;20054;-69
2022/01/05 10:52:54;;;;;;;2.73;0.93;;;4.50;99.90;;;;;;4953933;28;20393;-68
2022/01/05 10:55:24;;;;;;;4.53;1.43;;;3.80;99.90;;;;;;4953317;29;20089;-68
2022/01/05 10:58:01;;;;;;;10.67;1.37;;;4.50;99.90;;;;;;4953484;29;20051;-69
2022/01/05 11:00:34;;;;;;;7.32;1.17;;;6.40;99.90;;;;;;4953057;29;20517;-69
2022/01/05 11:03:02;;;;;;;5.13;1.00;;;7.40;99.90;;;;;;4953377;28;20130;-69
2022/01/05 11:05:30;;;;;;;5.68;1.20;;;6.40;99.90;;;;;;4953051;29;20594;-69
2022/01/05 11:08:08;;;;;;;6.57;1.70;;;8.00;99.90;;;;;;4953049;28;20056;-69
2022/01/05 11:10:35;;;;;;;9.77;1.83;;;6.10;99.90;;;;;;4956565;29;20625;-69
2022/01/05 11:13:01;;;;;;;8.85;1.33;;;4.80;99.90;;;;;;4956450;28;20075;-69
2022/01/05 11:15:31;;;;;;;9.27;1.75;;;6.30;99.90;;;;;;4958143;29;20101;-69
2022/01/05 11:18:14;;;;;;;7.10;1.40;;;4.60;99.90;;;;;;4956358;29;20422;-69
2022/01/05 11:20:46;;;;;;;9.33;1.30;;;3.50;99.90;;;;;;4956508;29;20091;-69
2022/01/05 11:23:14;;;;;;;9.00;1.50;;;3.40;99.90;;;;;;4956343;28;20066;-69
2022/01/05 11:25:43;;;;;;;8.03;1.80;;;3.40;99.90;;;;;;4956194;29;20134;-69
2022/01/05 11:28:12;;;;;;;7.40;1.80;;;3.20;99.90;;;;;;4956561;29;20055;-69
2022/01/05 11:30:39;;;;;;;6.17;1.40;;;3.30;99.90;;;;;;4956166;29;20079;-69
2022/01/05 11:33:07;;;;;;;7.73;1.40;;;3.20;99.90;;;;;;4956120;28;20487;-69
2022/01/05 11:35:35;;;;;;;7.40;1.20;;;3.70;99.90;;;;;;4956295;29;20105;-69
2022/01/05 11:38:04;;;;;;;5.17;1.20;;;4.70;99.90;;;;;;4955906;29;20082;-69
2022/01/05 11:40:34;;;;;;;6.07;1.37;;;3.60;99.90;;;;;;4955989;29;20142;-69
2022/01/05 11:43:04;;;;;;;6.57;1.20;;;3.30;99.90;;;;;;4955678;28;20150;-69
2022/01/05 11:45:34;;;;;;;7.10;1.20;;;3.10;99.90;;;;;;4955917;29;20492;-69
2022/01/05 11:48:23;;;;;;;5.57;1.27;;;3.00;99.90;;;;;;4956048;29;20483;-69
2022/01/05 11:50:51;;;;;;;7.33;1.73;;;3.00;99.90;;;;;;4955754;29;20455;-69
2022/01/05 11:53:35;;;;;;;6.07;1.30;;;3.00;99.90;;;;;;4955858;28;20134;-69
2022/01/05 11:56:16;;;;;;;8.50;1.27;;;2.90;99.90;;;;;;4956012;29;20407;-69
2022/01/05 11:58:53;;;;;;;10.77;1.80;;;2.80;99.90;;;;;;4956038;29;20134;-69
2022/01/05 12:01:29;;;;;;;14.07;3.78;;;2.80;99.90;;;;;;4956245;28;20135;-69
2022/01/05 12:04:11;;;;;;;10.18;1.67;;;2.70;99.90;;;;;;4955855;29;20047;-69
2022/01/05 12:07:19;;;;;;;9.67;1.40;;;2.80;99.90;;;;;;4955845;29;20055;-69
2022/01/05 12:09:51;;;;;;;;;;;2.80;99.90;;;;;;4899887;29;20136;-69
2022/01/05 12:12:32;;;;;;;5.30;1.47;;;2.70;99.90;;;;;;4955313;28;20005;-69
2022/01/05 12:15:01;;;;;;;12.50;1.87;;;2.80;99.90;;;;;;4955283;29;20538;-69
2022/01/05 12:17:29;;;;;;;8.27;1.63;;;2.80;99.90;;;;;;4955335;29;20055;-69
2022/01/05 12:20:16;;;;;;;6.73;1.53;;;2.70;99.90;;;;;;4955575;28;20094;-69
2022/01/05 12:22:44;;;;;;;9.73;1.90;;;2.70;99.90;;;;;;4947596;28;20059;-69
2022/01/05 12:25:21;;;;;;;9.73;2.10;;;2.70;99.90;;;;;;4955269;29;20051;-69
2022/01/05 12:28:05;;;;;;;8.65;2.03;;;2.70;99.90;;;;;;4954707;29;20059;-69
2022/01/05 12:30:36;;;;;;;12.40;2.30;;;2.70;99.90;;;;;;4948128;29;20142;-69
2022/01/05 12:33:06;;;;;;;9.07;1.90;;;2.80;99.90;;;;;;4954720;28;20059;-69
2022/01/05 12:35:51;;;;;;;7.90;1.80;;;2.80;99.90;;;;;;4954881;29;20594;-69
2022/01/05 12:38:38;;;;;;;7.27;1.60;;;2.70;99.90;;;;;;4954812;29;20082;-69
2022/01/05 12:41:26;;;;;;;6.80;1.80;;;2.70;99.90;;;;;;4954835;28;20145;-69
2022/01/05 12:43:55;;;;;;;7.90;1.73;;;2.70;99.90;;;;;;4955094;29;20086;-69
2022/01/05 12:46:41;;;;;;;8.03;1.20;;;2.70;99.90;;;;;;4955153;29;20058;-69
2022/01/05 12:49:13;;;;;;;8.53;1.70;;;2.80;99.90;;;;;;4955105;29;20062;-69
2022/01/05 12:51:47;;;;;;;12.40;2.00;;;2.80;99.90;;;;;;4954755;28;20142;-69
2022/01/05 12:54:18;;;;;;;11.47;1.80;;;2.70;99.90;;;;;;4954817;29;20496;-69
2022/01/05 12:56:48;;;;;;;6.53;1.60;;;2.70;99.90;;;;;;4954901;29;20504;-69
2022/01/05 12:59:19;;;;;;;9.47;1.90;;;2.80;99.90;;;;;;4955127;29;20051;-69
2022/01/05 13:01:47;;;;;;;13.23;1.83;;;2.70;99.90;;;;;;4954744;28;20071;-69
2022/01/05 13:04:15;;;;;;;11.50;2.50;;;2.70;99.90;;;;;;4965799;29;20097;-69
2022/01/05 13:06:43;;;;;;;10.63;1.83;;;2.70;99.90;;;;;;4969027;29;20058;-69